sensor_id;sensor_type;location;lat;lon;timestamp;P1;durP1;ratioP1;P2;durP2;ratioP2
12480;SDS011;6305;48.398;11.762;2023-03-29T00:01:03;7.82;;;4.20;;
12480;SDS011;6305;48.398;11.762;2023-03-29T00:03:30;6.35;;;3.92;;
12480;SDS011;6305;48.398;11.762;2023-03-29T00:05:58;6.17;;;4.20;;
12480;SDS011;6305;48.398;11.762;2023-03-29T00:08:27;5.10;;;4.05;;
12480;SDS011;6305;48.398;11.762;2023-03-29T00:10:57;6.23;;;4.23;;
12480;SDS011;6305;48.398;11.762;2023-03-29T00:13:24;6.03;;;4.15;;
12480;SDS011;6305;48.398;11.762;2023-03-29T00:15:52;7.32;;;4.32;;
12480;SDS011;6305;48.398;11.762;2023-03-29T00:18:20;5.18;;;3.90;;
12480;SDS011;6305;48.398;11.762;2023-03-29T00:20:52;5.75;;;3.92;;
12480;SDS011;6305;48.398;11.762;2023-03-29T00:23:20;7.65;;;4.00;;
12480;SDS011;6305;48.398;11.762;2023-03-29T00:25:49;7.45;;;4.00;;
12480;SDS011;6305;48.398;11.762;2023-03-29T00:28:19;5.72;;;3.83;;
12480;SDS011;6305;48.398;11.762;2023-03-29T00:30:46;5.57;;;3.85;;
12480;SDS011;6305;48.398;11.762;2023-03-29T00:33:14;4.82;;;3.80;;
12480;SDS011;6305;48.398;11.762;2023-03-29T00:35:43;5.75;;;3.70;;
12480;SDS011;6305;48.398;11.762;2023-03-29T00:38:10;7.45;;;3.95;;
12480;SDS011;6305;48.398;11.762;2023-03-29T00:40:39;6.75;;;3.88;;
12480;SDS011;6305;48.398;11.762;2023-03-29T00:43:08;4.40;;;3.80;;
12480;SDS011;6305;48.398;11.762;2023-03-29T00:45:37;7.60;;;4.05;;
12480;SDS011;6305;48.398;11.762;2023-03-29T00:48:04;8.55;;;4.10;;
12480;SDS011;6305;48.398;11.762;2023-03-29T00:50:34;4.45;;;3.42;;
12480;SDS011;6305;48.398;11.762;2023-03-29T00:53:07;7.03;;;3.95;;
12480;SDS011;6305;48.398;11.762;2023-03-29T00:55:38;6.57;;;3.72;;
12480;SDS011;6305;48.398;11.762;2023-03-29T00:58:10;6.93;;;4.43;;
12480;SDS011;6305;48.398;11.762;2023-03-29T01:00:43;4.35;;;3.75;;
12480;SDS011;6305;48.398;11.762;2023-03-29T01:03:14;6.00;;;4.10;;
12480;SDS011;6305;48.398;11.762;2023-03-29T01:05:48;4.38;;;3.53;;
12480;SDS011;6305;48.398;11.762;2023-03-29T01:08:19;7.18;;;3.97;;
12480;SDS011;6305;48.398;11.762;2023-03-29T01:10:52;4.80;;;4.00;;
12480;SDS011;6305;48.398;11.762;2023-03-29T01:13:24;7.32;;;4.22;;
12480;SDS011;6305;48.398;11.762;2023-03-29T01:15:57;5.37;;;3.90;;
12480;SDS011;6305;48.398;11.762;2023-03-29T01:18:25;4.57;;;3.72;;
12480;SDS011;6305;48.398;11.762;2023-03-29T01:20:58;4.80;;;3.65;;
12480;SDS011;6305;48.398;11.762;2023-03-29T01:23:43;5.82;;;3.90;;
12480;SDS011;6305;48.398;11.762;2023-03-29T01:26:35;4.90;;;3.50;;
12480;SDS011;6305;48.398;11.762;2023-03-29T01:29:10;4.95;;;3.80;;
12480;SDS011;6305;48.398;11.762;2023-03-29T01:31:43;5.68;;;3.97;;
12480;SDS011;6305;48.398;11.762;2023-03-29T01:34:20;4.65;;;3.97;;
12480;SDS011;6305;48.398;11.762;2023-03-29T01:36:52;5.35;;;4.15;;
12480;SDS011;6305;48.398;11.762;2023-03-29T01:39:24;6.40;;;3.80;;
12480;SDS011;6305;48.398;11.762;2023-03-29T01:41:55;4.95;;;3.78;;
12480;SDS011;6305;48.398;11.762;2023-03-29T01:44:33;6.27;;;4.03;;
12480;SDS011;6305;48.398;11.762;2023-03-29T01:47:07;7.90;;;4.10;;
12480;SDS011;6305;48.398;11.762;2023-03-29T01:49:39;5.35;;;3.88;;
12480;SDS011;6305;48.398;11.762;2023-03-29T01:52:11;5.47;;;4.18;;
12480;SDS011;6305;48.398;11.762;2023-03-29T01:54:42;6.43;;;4.60;;
12480;SDS011;6305;48.398;11.762;2023-03-29T01:57:18;5.82;;;3.88;;
12480;SDS011;6305;48.398;11.762;2023-03-29T01:59:48;7.95;;;3.85;;
12480;SDS011;6305;48.398;11.762;2023-03-29T02:02:18;7.63;;;4.07;;
12480;SDS011;6305;48.398;11.762;2023-03-29T02:04:46;5.50;;;4.05;;
12480;SDS011;6305;48.398;11.762;2023-03-29T02:07:18;8.60;;;4.28;;
12480;SDS011;6305;48.398;11.762;2023-03-29T02:09:48;7.07;;;4.47;;
12480;SDS011;6305;48.398;11.762;2023-03-29T02:12:18;7.65;;;3.97;;
12480;SDS011;6305;48.398;11.762;2023-03-29T02:14:46;7.00;;;4.00;;
12480;SDS011;6305;48.398;11.762;2023-03-29T02:17:15;4.78;;;3.88;;
12480;SDS011;6305;48.398;11.762;2023-03-29T02:19:45;6.47;;;3.63;;
12480;SDS011;6305;48.398;11.762;2023-03-29T02:22:17;5.80;;;4.20;;
12480;SDS011;6305;48.398;11.762;2023-03-29T02:24:48;8.60;;;4.20;;
12480;SDS011;6305;48.398;11.762;2023-03-29T02:27:23;5.63;;;3.60;;
12480;SDS011;6305;48.398;11.762;2023-03-29T02:29:51;6.53;;;4.15;;
12480;SDS011;6305;48.398;11.762;2023-03-29T02:32:22;6.60;;;4.37;;
12480;SDS011;6305;48.398;11.762;2023-03-29T02:34:56;5.63;;;3.70;;
12480;SDS011;6305;48.398;11.762;2023-03-29T02:37:26;4.85;;;3.65;;
12480;SDS011;6305;48.398;11.762;2023-03-29T02:39:57;4.60;;;3.47;;
12480;SDS011;6305;48.398;11.762;2023-03-29T02:42:26;5.60;;;3.67;;
12480;SDS011;6305;48.398;11.762;2023-03-29T02:44:54;5.05;;;3.35;;
12480;SDS011;6305;48.398;11.762;2023-03-29T02:47:27;4.40;;;3.45;;
12480;SDS011;6305;48.398;11.762;2023-03-29T02:49:58;5.25;;;3.42;;
12480;SDS011;6305;48.398;11.762;2023-03-29T02:52:27;4.82;;;3.30;;
12480;SDS011;6305;48.398;11.762;2023-03-29T02:54:59;6.18;;;3.60;;
12480;SDS011;6305;48.398;11.762;2023-03-29T02:57:30;4.97;;;3.30;;
12480;SDS011;6305;48.398;11.762;2023-03-29T02:59:59;3.83;;;3.17;;
12480;SDS011;6305;48.398;11.762;2023-03-29T03:02:35;5.25;;;3.10;;
12480;SDS011;6305;48.398;11.762;2023-03-29T03:05:04;5.25;;;3.03;;
12480;SDS011;6305;48.398;11.762;2023-03-29T03:07:32;4.82;;;2.80;;
12480;SDS011;6305;48.398;11.762;2023-03-29T03:09:59;4.00;;;2.75;;
12480;SDS011;6305;48.398;11.762;2023-03-29T03:12:28;5.53;;;3.00;;
12480;SDS011;6305;48.398;11.762;2023-03-29T03:14:55;4.53;;;3.25;;
12480;SDS011;6305;48.398;11.762;2023-03-29T03:17:22;5.90;;;3.10;;
12480;SDS011;6305;48.398;11.762;2023-03-29T03:19:51;4.32;;;2.83;;
12480;SDS011;6305;48.398;11.762;2023-03-29T03:22:19;4.77;;;2.40;;
12480;SDS011;6305;48.398;11.762;2023-03-29T03:24:46;3.72;;;2.63;;
12480;SDS011;6305;48.398;11.762;2023-03-29T03:27:13;3.42;;;2.50;;
12480;SDS011;6305;48.398;11.762;2023-03-29T03:29:40;4.60;;;2.80;;
12480;SDS011;6305;48.398;11.762;2023-03-29T03:32:36;3.63;;;2.88;;
12480;SDS011;6305;48.398;11.762;2023-03-29T03:35:28;3.88;;;2.67;;
12480;SDS011;6305;48.398;11.762;2023-03-29T03:37:55;5.32;;;2.58;;
12480;SDS011;6305;48.398;11.762;2023-03-29T03:40:22;4.35;;;2.88;;
12480;SDS011;6305;48.398;11.762;2023-03-29T03:42:50;4.07;;;2.60;;
12480;SDS011;6305;48.398;11.762;2023-03-29T03:45:16;4.22;;;2.50;;
12480;SDS011;6305;48.398;11.762;2023-03-29T03:48:10;3.80;;;2.88;;
12480;SDS011;6305;48.398;11.762;2023-03-29T03:50:47;3.67;;;2.50;;
12480;SDS011;6305;48.398;11.762;2023-03-29T03:53:15;3.78;;;2.45;;
12480;SDS011;6305;48.398;11.762;2023-03-29T03:56:06;3.60;;;2.80;;
12480;SDS011;6305;48.398;11.762;2023-03-29T03:58:40;3.92;;;2.47;;
12480;SDS011;6305;48.398;11.762;2023-03-29T04:01:07;4.28;;;2.60;;
12480;SDS011;6305;48.398;11.762;2023-03-29T04:03:40;2.75;;;2.17;;
12480;SDS011;6305;48.398;11.762;2023-03-29T04:06:12;3.97;;;2.30;;
12480;SDS011;6305;48.398;11.762;2023-03-29T04:08:58;3.20;;;2.38;;
12480;SDS011;6305;48.398;11.762;2023-03-29T04:11:32;2.97;;;2.15;;
12480;SDS011;6305;48.398;11.762;2023-03-29T04:13:59;3.58;;;2.05;;
12480;SDS011;6305;48.398;11.762;2023-03-29T04:16:38;3.17;;;2.08;;
12480;SDS011;6305;48.398;11.762;2023-03-29T04:19:37;3.05;;;2.00;;
12480;SDS011;6305;48.398;11.762;2023-03-29T04:22:05;3.90;;;2.28;;
12480;SDS011;6305;48.398;11.762;2023-03-29T04:24:34;2.72;;;2.17;;
12480;SDS011;6305;48.398;11.762;2023-03-29T04:27:17;4.22;;;2.20;;
12480;SDS011;6305;48.398;11.762;2023-03-29T04:29:44;3.30;;;2.00;;
12480;SDS011;6305;48.398;11.762;2023-03-29T04:32:25;3.03;;;1.98;;
12480;SDS011;6305;48.398;11.762;2023-03-29T04:35:04;3.20;;;2.30;;
12480;SDS011;6305;48.398;11.762;2023-03-29T04:37:33;3.35;;;1.85;;
12480;SDS011;6305;48.398;11.762;2023-03-29T04:40:01;2.85;;;2.00;;
12480;SDS011;6305;48.398;11.762;2023-03-29T04:42:43;3.63;;;2.03;;
12480;SDS011;6305;48.398;11.762;2023-03-29T04:45:12;2.40;;;2.03;;
12480;SDS011;6305;48.398;11.762;2023-03-29T04:48:02;2.95;;;2.10;;
12480;SDS011;6305;48.398;11.762;2023-03-29T04:50:29;3.40;;;2.10;;
12480;SDS011;6305;48.398;11.762;2023-03-29T04:52:58;3.13;;;2.27;;
12480;SDS011;6305;48.398;11.762;2023-03-29T04:55:26;3.28;;;2.13;;
12480;SDS011;6305;48.398;11.762;2023-03-29T04:57:58;2.85;;;2.13;;
12480;SDS011;6305;48.398;11.762;2023-03-29T05:00:35;3.80;;;1.98;;
12480;SDS011;6305;48.398;11.762;2023-03-29T05:03:11;3.67;;;1.98;;
12480;SDS011;6305;48.398;11.762;2023-03-29T05:05:47;4.07;;;2.00;;
12480;SDS011;6305;48.398;11.762;2023-03-29T05:08:15;2.65;;;2.40;;
12480;SDS011;6305;48.398;11.762;2023-03-29T05:11:02;4.17;;;2.20;;
12480;SDS011;6305;48.398;11.762;2023-03-29T05:13:30;2.83;;;2.30;;
12480;SDS011;6305;48.398;11.762;2023-03-29T05:15:57;3.67;;;2.08;;
12480;SDS011;6305;48.398;11.762;2023-03-29T05:18:25;2.65;;;2.15;;
12480;SDS011;6305;48.398;11.762;2023-03-29T05:20:54;2.95;;;1.90;;
12480;SDS011;6305;48.398;11.762;2023-03-29T05:23:22;3.10;;;2.00;;
12480;SDS011;6305;48.398;11.762;2023-03-29T05:26:06;2.13;;;1.90;;
12480;SDS011;6305;48.398;11.762;2023-03-29T05:28:35;3.20;;;2.22;;
12480;SDS011;6305;48.398;11.762;2023-03-29T05:31:03;2.42;;;2.15;;
12480;SDS011;6305;48.398;11.762;2023-03-29T05:33:33;3.30;;;2.25;;
12480;SDS011;6305;48.398;11.762;2023-03-29T05:36:01;3.35;;;2.50;;
12480;SDS011;6305;48.398;11.762;2023-03-29T05:38:31;3.03;;;2.50;;
12480;SDS011;6305;48.398;11.762;2023-03-29T05:40:58;3.47;;;2.50;;
12480;SDS011;6305;48.398;11.762;2023-03-29T05:43:57;3.15;;;2.40;;
12480;SDS011;6305;48.398;11.762;2023-03-29T05:46:25;4.00;;;2.30;;
12480;SDS011;6305;48.398;11.762;2023-03-29T05:48:55;2.65;;;2.17;;
12480;SDS011;6305;48.398;11.762;2023-03-29T05:51:35;2.95;;;2.28;;
12480;SDS011;6305;48.398;11.762;2023-03-29T05:54:04;2.17;;;1.95;;
12480;SDS011;6305;48.398;11.762;2023-03-29T05:56:32;2.65;;;2.22;;
12480;SDS011;6305;48.398;11.762;2023-03-29T05:58:59;5.75;;;2.50;;
12480;SDS011;6305;48.398;11.762;2023-03-29T06:01:27;3.13;;;2.53;;
12480;SDS011;6305;48.398;11.762;2023-03-29T06:04:04;3.30;;;2.22;;
12480;SDS011;6305;48.398;11.762;2023-03-29T06:06:38;3.10;;;2.40;;
12480;SDS011;6305;48.398;11.762;2023-03-29T06:09:07;4.60;;;2.50;;
12480;SDS011;6305;48.398;11.762;2023-03-29T06:11:38;2.17;;;1.98;;
12480;SDS011;6305;48.398;11.762;2023-03-29T06:14:06;2.58;;;2.10;;
12480;SDS011;6305;48.398;11.762;2023-03-29T06:16:37;2.97;;;2.38;;
12480;SDS011;6305;48.398;11.762;2023-03-29T06:19:05;3.33;;;2.10;;
12480;SDS011;6305;48.398;11.762;2023-03-29T06:21:33;2.13;;;1.92;;
12480;SDS011;6305;48.398;11.762;2023-03-29T06:24:01;3.83;;;1.90;;
12480;SDS011;6305;48.398;11.762;2023-03-29T06:26:36;4.38;;;2.33;;
12480;SDS011;6305;48.398;11.762;2023-03-29T06:29:03;3.15;;;2.30;;
12480;SDS011;6305;48.398;11.762;2023-03-29T06:31:31;3.03;;;2.08;;
12480;SDS011;6305;48.398;11.762;2023-03-29T06:34:00;4.55;;;3.60;;
12480;SDS011;6305;48.398;11.762;2023-03-29T06:36:47;5.20;;;2.92;;
12480;SDS011;6305;48.398;11.762;2023-03-29T06:39:16;3.78;;;2.42;;
12480;SDS011;6305;48.398;11.762;2023-03-29T06:42:13;2.25;;;1.63;;
12480;SDS011;6305;48.398;11.762;2023-03-29T06:44:59;3.60;;;2.40;;
12480;SDS011;6305;48.398;11.762;2023-03-29T06:47:27;3.03;;;1.77;;
12480;SDS011;6305;48.398;11.762;2023-03-29T06:49:55;5.13;;;3.85;;
12480;SDS011;6305;48.398;11.762;2023-03-29T06:52:35;3.75;;;2.63;;
12480;SDS011;6305;48.398;11.762;2023-03-29T06:55:02;3.65;;;2.50;;
12480;SDS011;6305;48.398;11.762;2023-03-29T06:57:33;4.00;;;2.50;;
12480;SDS011;6305;48.398;11.762;2023-03-29T07:00:01;5.20;;;2.80;;
12480;SDS011;6305;48.398;11.762;2023-03-29T07:02:57;3.80;;;3.40;;
12480;SDS011;6305;48.398;11.762;2023-03-29T07:05:26;4.72;;;3.88;;
12480;SDS011;6305;48.398;11.762;2023-03-29T07:07:53;5.20;;;3.50;;
12480;SDS011;6305;48.398;11.762;2023-03-29T07:10:34;4.13;;;3.17;;
12480;SDS011;6305;48.398;11.762;2023-03-29T07:13:27;4.28;;;2.92;;
12480;SDS011;6305;48.398;11.762;2023-03-29T07:15:56;2.38;;;2.03;;
12480;SDS011;6305;48.398;11.762;2023-03-29T07:18:37;2.80;;;2.00;;
12480;SDS011;6305;48.398;11.762;2023-03-29T07:21:05;2.47;;;2.00;;
12480;SDS011;6305;48.398;11.762;2023-03-29T07:23:34;2.25;;;1.60;;
12480;SDS011;6305;48.398;11.762;2023-03-29T07:26:01;2.42;;;1.50;;
12480;SDS011;6305;48.398;11.762;2023-03-29T07:28:31;2.58;;;1.45;;
12480;SDS011;6305;48.398;11.762;2023-03-29T07:31:02;1.95;;;1.40;;
12480;SDS011;6305;48.398;11.762;2023-03-29T07:33:31;1.73;;;1.35;;
12480;SDS011;6305;48.398;11.762;2023-03-29T07:36:02;1.95;;;1.58;;
12480;SDS011;6305;48.398;11.762;2023-03-29T07:38:32;1.92;;;1.70;;
12480;SDS011;6305;48.398;11.762;2023-03-29T07:41:08;2.45;;;1.60;;
12480;SDS011;6305;48.398;11.762;2023-03-29T07:43:45;2.13;;;1.40;;
12480;SDS011;6305;48.398;11.762;2023-03-29T07:46:14;1.63;;;1.52;;
12480;SDS011;6305;48.398;11.762;2023-03-29T07:48:42;2.33;;;1.38;;
12480;SDS011;6305;48.398;11.762;2023-03-29T07:51:12;1.77;;;1.55;;
12480;SDS011;6305;48.398;11.762;2023-03-29T07:53:44;3.15;;;1.60;;
12480;SDS011;6305;48.398;11.762;2023-03-29T07:56:31;1.90;;;1.45;;
12480;SDS011;6305;48.398;11.762;2023-03-29T07:59:12;2.53;;;1.40;;
12480;SDS011;6305;48.398;11.762;2023-03-29T08:01:41;4.70;;;1.55;;
12480;SDS011;6305;48.398;11.762;2023-03-29T08:04:20;2.17;;;1.58;;
12480;SDS011;6305;48.398;11.762;2023-03-29T08:07:11;2.53;;;1.60;;
12480;SDS011;6305;48.398;11.762;2023-03-29T08:09:57;3.80;;;1.50;;
12480;SDS011;6305;48.398;11.762;2023-03-29T08:13:02;2.45;;;1.52;;
12480;SDS011;6305;48.398;11.762;2023-03-29T08:15:54;2.47;;;1.20;;
12480;SDS011;6305;48.398;11.762;2023-03-29T08:18:27;3.40;;;1.65;;
12480;SDS011;6305;48.398;11.762;2023-03-29T08:20:55;2.53;;;1.38;;
12480;SDS011;6305;48.398;11.762;2023-03-29T08:23:22;2.03;;;1.40;;
12480;SDS011;6305;48.398;11.762;2023-03-29T08:26:03;1.83;;;1.30;;
12480;SDS011;6305;48.398;11.762;2023-03-29T08:28:30;2.33;;;1.30;;
12480;SDS011;6305;48.398;11.762;2023-03-29T08:31:00;3.53;;;1.45;;
12480;SDS011;6305;48.398;11.762;2023-03-29T08:33:27;4.20;;;1.50;;
12480;SDS011;6305;48.398;11.762;2023-03-29T08:36:09;2.10;;;1.13;;
12480;SDS011;6305;48.398;11.762;2023-03-29T08:38:37;2.53;;;1.30;;
12480;SDS011;6305;48.398;11.762;2023-03-29T08:41:07;3.10;;;1.30;;
12480;SDS011;6305;48.398;11.762;2023-03-29T08:43:54;1.95;;;1.25;;
12480;SDS011;6305;48.398;11.762;2023-03-29T08:46:53;1.77;;;1.20;;
12480;SDS011;6305;48.398;11.762;2023-03-29T08:49:33;1.60;;;1.10;;
12480;SDS011;6305;48.398;11.762;2023-03-29T08:52:04;2.65;;;1.25;;
12480;SDS011;6305;48.398;11.762;2023-03-29T08:54:47;3.50;;;1.25;;
12480;SDS011;6305;48.398;11.762;2023-03-29T08:57:28;3.03;;;1.00;;
12480;SDS011;6305;48.398;11.762;2023-03-29T09:00:11;2.10;;;1.48;;
12480;SDS011;6305;48.398;11.762;2023-03-29T09:02:46;2.20;;;1.13;;
12480;SDS011;6305;48.398;11.762;2023-03-29T09:05:17;1.40;;;1.30;;
12480;SDS011;6305;48.398;11.762;2023-03-29T09:07:56;4.22;;;1.20;;
12480;SDS011;6305;48.398;11.762;2023-03-29T09:10:28;1.77;;;1.13;;
12480;SDS011;6305;48.398;11.762;2023-03-29T09:13:07;1.52;;;1.10;;
12480;SDS011;6305;48.398;11.762;2023-03-29T09:15:46;3.80;;;1.00;;
12480;SDS011;6305;48.398;11.762;2023-03-29T09:18:33;1.85;;;1.13;;
12480;SDS011;6305;48.398;11.762;2023-03-29T09:21:12;1.85;;;0.90;;
12480;SDS011;6305;48.398;11.762;2023-03-29T09:23:57;3.13;;;1.10;;
12480;SDS011;6305;48.398;11.762;2023-03-29T09:26:44;1.08;;;0.90;;
12480;SDS011;6305;48.398;11.762;2023-03-29T09:29:38;1.20;;;0.95;;
12480;SDS011;6305;48.398;11.762;2023-03-29T09:32:17;2.17;;;1.10;;
12480;SDS011;6305;48.398;11.762;2023-03-29T09:34:58;1.73;;;1.10;;
12480;SDS011;6305;48.398;11.762;2023-03-29T09:37:31;2.55;;;1.10;;
12480;SDS011;6305;48.398;11.762;2023-03-29T09:40:00;2.35;;;1.20;;
12480;SDS011;6305;48.398;11.762;2023-03-29T09:42:48;2.22;;;1.17;;
12480;SDS011;6305;48.398;11.762;2023-03-29T09:45:17;2.05;;;1.30;;
12480;SDS011;6305;48.398;11.762;2023-03-29T09:47:48;2.35;;;1.10;;
12480;SDS011;6305;48.398;11.762;2023-03-29T09:50:20;1.90;;;1.45;;
12480;SDS011;6305;48.398;11.762;2023-03-29T09:52:50;1.67;;;1.27;;
12480;SDS011;6305;48.398;11.762;2023-03-29T09:55:21;2.67;;;1.17;;
12480;SDS011;6305;48.398;11.762;2023-03-29T09:58:13;2.70;;;1.10;;
12480;SDS011;6305;48.398;11.762;2023-03-29T10:00:45;2.13;;;1.20;;
12480;SDS011;6305;48.398;11.762;2023-03-29T10:03:17;2.45;;;1.35;;
12480;SDS011;6305;48.398;11.762;2023-03-29T10:05:54;1.33;;;1.13;;
12480;SDS011;6305;48.398;11.762;2023-03-29T10:08:24;1.95;;;1.17;;
12480;SDS011;6305;48.398;11.762;2023-03-29T10:10:55;3.10;;;1.20;;
12480;SDS011;6305;48.398;11.762;2023-03-29T10:13:25;4.30;;;1.40;;
12480;SDS011;6305;48.398;11.762;2023-03-29T10:15:56;3.22;;;1.42;;
12480;SDS011;6305;48.398;11.762;2023-03-29T10:18:26;2.35;;;1.10;;
12480;SDS011;6305;48.398;11.762;2023-03-29T10:20:58;3.35;;;1.20;;
12480;SDS011;6305;48.398;11.762;2023-03-29T10:23:28;1.95;;;1.30;;
12480;SDS011;6305;48.398;11.762;2023-03-29T10:25:56;2.40;;;1.30;;
12480;SDS011;6305;48.398;11.762;2023-03-29T10:28:27;4.45;;;1.40;;
12480;SDS011;6305;48.398;11.762;2023-03-29T10:30:56;2.92;;;1.10;;
12480;SDS011;6305;48.398;11.762;2023-03-29T10:33:30;2.92;;;1.35;;
12480;SDS011;6305;48.398;11.762;2023-03-29T10:36:02;1.80;;;1.10;;
12480;SDS011;6305;48.398;11.762;2023-03-29T10:38:32;1.98;;;1.10;;
12480;SDS011;6305;48.398;11.762;2023-03-29T10:41:02;2.75;;;1.55;;
12480;SDS011;6305;48.398;11.762;2023-03-29T10:43:35;1.42;;;1.30;;
12480;SDS011;6305;48.398;11.762;2023-03-29T10:46:05;1.50;;;1.15;;
12480;SDS011;6305;48.398;11.762;2023-03-29T10:48:33;2.67;;;1.20;;
12480;SDS011;6305;48.398;11.762;2023-03-29T10:51:02;2.10;;;1.27;;
12480;SDS011;6305;48.398;11.762;2023-03-29T10:53:32;3.10;;;1.33;;
12480;SDS011;6305;48.398;11.762;2023-03-29T10:56:10;2.03;;;1.13;;
12480;SDS011;6305;48.398;11.762;2023-03-29T10:58:51;2.15;;;1.10;;
12480;SDS011;6305;48.398;11.762;2023-03-29T11:01:32;1.88;;;1.35;;
12480;SDS011;6305;48.398;11.762;2023-03-29T11:04:09;1.88;;;1.48;;
12480;SDS011;6305;48.398;11.762;2023-03-29T11:06:51;2.05;;;1.10;;
12480;SDS011;6305;48.398;11.762;2023-03-29T11:09:30;1.60;;;1.25;;
12480;SDS011;6305;48.398;11.762;2023-03-29T11:12:08;3.17;;;1.50;;
12480;SDS011;6305;48.398;11.762;2023-03-29T11:14:46;3.05;;;1.50;;
12480;SDS011;6305;48.398;11.762;2023-03-29T11:17:26;2.45;;;1.50;;
12480;SDS011;6305;48.398;11.762;2023-03-29T11:20:10;3.47;;;1.35;;
12480;SDS011;6305;48.398;11.762;2023-03-29T11:22:48;1.75;;;1.27;;
12480;SDS011;6305;48.398;11.762;2023-03-29T11:25:24;2.45;;;1.40;;
12480;SDS011;6305;48.398;11.762;2023-03-29T11:27:59;3.00;;;1.23;;
12480;SDS011;6305;48.398;11.762;2023-03-29T11:30:35;2.42;;;1.30;;
12480;SDS011;6305;48.398;11.762;2023-03-29T11:33:12;3.55;;;1.48;;
12480;SDS011;6305;48.398;11.762;2023-03-29T11:35:47;1.85;;;1.45;;
12480;SDS011;6305;48.398;11.762;2023-03-29T11:38:24;2.67;;;1.40;;
12480;SDS011;6305;48.398;11.762;2023-03-29T11:40:56;2.25;;;1.50;;
12480;SDS011;6305;48.398;11.762;2023-03-29T11:43:30;2.92;;;1.10;;
12480;SDS011;6305;48.398;11.762;2023-03-29T11:46:06;2.80;;;1.38;;
12480;SDS011;6305;48.398;11.762;2023-03-29T11:48:38;1.75;;;1.27;;
12480;SDS011;6305;48.398;11.762;2023-03-29T11:51:11;1.40;;;1.00;;
12480;SDS011;6305;48.398;11.762;2023-03-29T11:53:47;1.75;;;1.20;;
12480;SDS011;6305;48.398;11.762;2023-03-29T11:56:23;1.30;;;1.20;;
12480;SDS011;6305;48.398;11.762;2023-03-29T11:58:56;2.22;;;1.30;;
12480;SDS011;6305;48.398;11.762;2023-03-29T12:01:30;2.33;;;1.17;;
12480;SDS011;6305;48.398;11.762;2023-03-29T12:04:01;2.13;;;1.08;;
12480;SDS011;6305;48.398;11.762;2023-03-29T12:06:37;2.10;;;1.08;;
12480;SDS011;6305;48.398;11.762;2023-03-29T12:09:19;2.75;;;1.20;;
12480;SDS011;6305;48.398;11.762;2023-03-29T12:11:53;4.50;;;1.20;;
12480;SDS011;6305;48.398;11.762;2023-03-29T12:14:27;2.50;;;1.40;;
12480;SDS011;6305;48.398;11.762;2023-03-29T12:17:01;1.33;;;1.08;;
12480;SDS011;6305;48.398;11.762;2023-03-29T12:19:33;3.08;;;1.17;;
12480;SDS011;6305;48.398;11.762;2023-03-29T12:22:04;2.85;;;1.20;;
12480;SDS011;6305;48.398;11.762;2023-03-29T12:24:37;2.60;;;1.20;;
12480;SDS011;6305;48.398;11.762;2023-03-29T12:30:01;2.30;;;1.10;;
12480;SDS011;6305;48.398;11.762;2023-03-29T12:32:52;2.75;;;1.20;;
12480;SDS011;6305;48.398;11.762;2023-03-29T12:35:57;3.53;;;1.38;;
12480;SDS011;6305;48.398;11.762;2023-03-29T12:39:14;3.38;;;1.30;;
12480;SDS011;6305;48.398;11.762;2023-03-29T12:42:05;1.98;;;1.10;;
12480;SDS011;6305;48.398;11.762;2023-03-29T12:45:11;2.08;;;1.05;;
12480;SDS011;6305;48.398;11.762;2023-03-29T12:47:43;1.15;;;1.00;;
12480;SDS011;6305;48.398;11.762;2023-03-29T12:50:17;2.80;;;1.30;;
12480;SDS011;6305;48.398;11.762;2023-03-29T12:52:59;1.45;;;1.35;;
12480;SDS011;6305;48.398;11.762;2023-03-29T12:55:30;2.25;;;1.20;;
12480;SDS011;6305;48.398;11.762;2023-03-29T12:58:01;3.17;;;1.30;;
12480;SDS011;6305;48.398;11.762;2023-03-29T13:00:31;3.28;;;1.25;;
12480;SDS011;6305;48.398;11.762;2023-03-29T13:03:18;1.58;;;1.30;;
12480;SDS011;6305;48.398;11.762;2023-03-29T13:05:57;1.40;;;1.00;;
12480;SDS011;6305;48.398;11.762;2023-03-29T13:08:31;3.85;;;1.60;;
12480;SDS011;6305;48.398;11.762;2023-03-29T13:11:00;2.35;;;1.00;;
12480;SDS011;6305;48.398;11.762;2023-03-29T13:13:31;1.92;;;1.27;;
12480;SDS011;6305;48.398;11.762;2023-03-29T13:18:56;1.60;;;1.20;;
12480;SDS011;6305;48.398;11.762;2023-03-29T13:21:37;2.45;;;1.23;;
12480;SDS011;6305;48.398;11.762;2023-03-29T13:24:21;2.58;;;1.30;;
12480;SDS011;6305;48.398;11.762;2023-03-29T13:27:08;2.28;;;1.20;;
12480;SDS011;6305;48.398;11.762;2023-03-29T13:29:55;1.55;;;1.20;;
12480;SDS011;6305;48.398;11.762;2023-03-29T13:32:39;2.00;;;1.30;;
12480;SDS011;6305;48.398;11.762;2023-03-29T13:35:19;1.60;;;1.20;;
12480;SDS011;6305;48.398;11.762;2023-03-29T13:37:58;1.95;;;1.33;;
12480;SDS011;6305;48.398;11.762;2023-03-29T13:40:40;1.92;;;1.30;;
12480;SDS011;6305;48.398;11.762;2023-03-29T13:43:18;2.80;;;1.30;;
12480;SDS011;6305;48.398;11.762;2023-03-29T13:46:03;2.25;;;1.00;;
12480;SDS011;6305;48.398;11.762;2023-03-29T13:48:44;1.58;;;1.13;;
12480;SDS011;6305;48.398;11.762;2023-03-29T13:51:22;2.95;;;1.33;;
12480;SDS011;6305;48.398;11.762;2023-03-29T13:53:58;2.17;;;1.38;;
12480;SDS011;6305;48.398;11.762;2023-03-29T13:56:33;3.05;;;1.10;;
12480;SDS011;6305;48.398;11.762;2023-03-29T13:59:04;2.95;;;1.50;;
12480;SDS011;6305;48.398;11.762;2023-03-29T14:01:40;2.25;;;1.52;;
12480;SDS011;6305;48.398;11.762;2023-03-29T14:04:12;1.60;;;1.30;;
12480;SDS011;6305;48.398;11.762;2023-03-29T14:06:47;2.47;;;1.38;;
12480;SDS011;6305;48.398;11.762;2023-03-29T14:09:17;2.78;;;1.40;;
12480;SDS011;6305;48.398;11.762;2023-03-29T14:11:47;2.08;;;1.30;;
12480;SDS011;6305;48.398;11.762;2023-03-29T14:14:15;3.63;;;1.40;;
12480;SDS011;6305;48.398;11.762;2023-03-29T14:16:48;1.80;;;1.30;;
12480;SDS011;6305;48.398;11.762;2023-03-29T14:19:16;3.25;;;1.30;;
12480;SDS011;6305;48.398;11.762;2023-03-29T14:21:47;1.80;;;1.30;;
12480;SDS011;6305;48.398;11.762;2023-03-29T14:24:17;2.45;;;1.50;;
12480;SDS011;6305;48.398;11.762;2023-03-29T14:26:47;1.25;;;1.08;;
12480;SDS011;6305;48.398;11.762;2023-03-29T14:29:14;7.25;;;1.42;;
12480;SDS011;6305;48.398;11.762;2023-03-29T14:31:42;1.60;;;1.20;;
12480;SDS011;6305;48.398;11.762;2023-03-29T14:34:12;3.22;;;1.50;;
12480;SDS011;6305;48.398;11.762;2023-03-29T14:36:40;1.63;;;1.30;;
12480;SDS011;6305;48.398;11.762;2023-03-29T14:39:10;1.70;;;1.50;;
12480;SDS011;6305;48.398;11.762;2023-03-29T14:41:42;2.35;;;1.35;;
12480;SDS011;6305;48.398;11.762;2023-03-29T14:44:14;1.88;;;1.50;;
12480;SDS011;6305;48.398;11.762;2023-03-29T14:46:41;2.00;;;1.60;;
12480;SDS011;6305;48.398;11.762;2023-03-29T14:49:13;1.88;;;1.40;;
12480;SDS011;6305;48.398;11.762;2023-03-29T14:51:42;1.67;;;1.40;;
12480;SDS011;6305;48.398;11.762;2023-03-29T14:54:11;1.77;;;1.38;;
12480;SDS011;6305;48.398;11.762;2023-03-29T14:56:44;2.55;;;1.30;;
12480;SDS011;6305;48.398;11.762;2023-03-29T14:59:21;1.92;;;1.45;;
12480;SDS011;6305;48.398;11.762;2023-03-29T15:01:51;2.50;;;1.23;;
12480;SDS011;6305;48.398;11.762;2023-03-29T15:04:20;1.65;;;1.25;;
12480;SDS011;6305;48.398;11.762;2023-03-29T15:06:48;3.58;;;1.30;;
12480;SDS011;6305;48.398;11.762;2023-03-29T15:09:17;2.33;;;1.15;;
12480;SDS011;6305;48.398;11.762;2023-03-29T15:11:53;4.05;;;1.75;;
12480;SDS011;6305;48.398;11.762;2023-03-29T15:14:21;2.85;;;2.22;;
12480;SDS011;6305;48.398;11.762;2023-03-29T15:16:51;3.08;;;1.48;;
12480;SDS011;6305;48.398;11.762;2023-03-29T15:19:23;4.13;;;1.50;;
12480;SDS011;6305;48.398;11.762;2023-03-29T15:21:51;3.47;;;1.42;;
12480;SDS011;6305;48.398;11.762;2023-03-29T15:24:20;2.92;;;1.48;;
12480;SDS011;6305;48.398;11.762;2023-03-29T15:26:57;3.17;;;1.38;;
12480;SDS011;6305;48.398;11.762;2023-03-29T15:29:34;3.45;;;1.40;;
12480;SDS011;6305;48.398;11.762;2023-03-29T15:32:06;4.28;;;1.35;;
12480;SDS011;6305;48.398;11.762;2023-03-29T15:34:35;1.63;;;1.20;;